createdAt,value
2022-08-01T00:01:00.426Z,100887.97
2022-08-01T00:04:03.172Z,100887.25
2022-08-01T00:07:05.887Z,100892.25
2022-08-01T00:10:12.566Z,100892.38
2022-08-01T00:13:15.268Z,100893.63
2022-08-01T00:16:18.151Z,100889.63
2022-08-01T00:19:20.801Z,100891.19
2022-08-01T00:22:23.551Z,100895.38
2022-08-01T00:25:33.996Z,100887.28
2022-08-01T00:28:37.458Z,100888.78
2022-08-01T00:31:40.247Z,100896.09
2022-08-01T00:34:42.942Z,100890.97
2022-08-01T00:37:45.915Z,100893.03
2022-08-01T00:40:50.036Z,100892.41
2022-08-01T00:43:52.809Z,100895.34
2022-08-01T00:46:55.510Z,100888.88
2022-08-01T00:49:58.191Z,100888.00
2022-08-01T00:53:01.754Z,100892.91
2022-08-01T00:56:06.477Z,100894.03
2022-08-01T00:59:09.909Z,100889.25
2022-08-01T01:02:14.954Z,100888.78
2022-08-01T01:05:18.325Z,100886.06
2022-08-01T01:08:26.240Z,100890.44
2022-08-01T01:11:34.241Z,100885.94
2022-08-01T01:14:45.738Z,100885.69
2022-08-01T01:17:53.859Z,100888.00
2022-08-01T01:21:09.530Z,100884.13
2022-08-01T01:24:23.517Z,100888.16
2022-08-01T01:27:35.605Z,100885.78
2022-08-01T01:30:43.382Z,100891.19
2022-08-01T01:33:47.545Z,100883.09
2022-08-01T01:36:54.182Z,100890.22
2022-08-01T01:39:58.461Z,100889.25
2022-08-01T01:43:01.860Z,100892.16
2022-08-01T01:46:07.292Z,100892.16
2022-08-01T01:49:11.745Z,100892.38
2022-08-01T01:52:16.532Z,100899.91
2022-08-01T01:55:22.283Z,100894.97
2022-08-01T01:58:26.351Z,100900.25
2022-08-01T02:02:06.125Z,100902.91
2022-08-01T02:04:59.085Z,100900.00
2022-08-01T02:08:03.452Z,100903.03
2022-08-01T02:11:23.128Z,100908.00
2022-08-01T02:14:28.043Z,100906.75
2022-08-01T02:17:33.273Z,100897.38
2022-08-01T02:20:38.713Z,100899.88
2022-08-01T02:23:42.418Z,100904.63
2022-08-01T02:26:49.768Z,100901.91
2022-08-01T02:29:57.029Z,100907.13
2022-08-01T02:33:05.895Z,100906.28
2022-08-01T02:36:32.468Z,100901.31
2022-08-01T02:39:34.129Z,100899.16
2022-08-01T02:42:39.794Z,100910.72
2022-08-01T02:45:48.556Z,100906.66
2022-08-01T02:48:55.345Z,100906.34
2022-08-01T02:51:59.722Z,100915.25
2022-08-01T02:55:03.335Z,100910.41
2022-08-01T02:58:08.487Z,100920.22
2022-08-01T03:01:12.271Z,100920.16
2022-08-01T03:04:18.755Z,100923.59
2022-08-01T03:07:22.960Z,100928.41
2022-08-01T03:10:28.942Z,100929.91
2022-08-01T03:13:34.202Z,100920.31
2022-08-01T03:16:39.947Z,100923.94
2022-08-01T03:19:47.768Z,100933.84
2022-08-01T03:22:53.773Z,100930.09
2022-08-01T03:25:57.616Z,100927.19
2022-08-01T03:29:03.956Z,100925.44
2022-08-01T03:32:08.495Z,100941.25
2022-08-01T03:35:12.877Z,100933.44
2022-08-01T03:38:21.139Z,100935.88
2022-08-01T03:41:27.896Z,100935.03
2022-08-01T03:44:34.049Z,100946.81
2022-08-01T03:47:43.570Z,100945.09
2022-08-01T03:50:53.255Z,100944.66
2022-08-01T03:53:58.005Z,100944.38
2022-08-01T03:57:01.933Z,100944.31
2022-08-01T04:00:07.758Z,100947.84
2022-08-01T04:03:11.338Z,100956.72
2022-08-01T04:06:16.517Z,100964.78
2022-08-01T04:09:19.715Z,100968.47
2022-08-01T04:12:22.893Z,100967.16
2022-08-01T04:15:25.870Z,100969.38
2022-08-01T04:18:28.667Z,100969.72
2022-08-01T04:21:34.721Z,100970.81
2022-08-01T04:24:38.444Z,100978.63
2022-08-01T04:27:50.977Z,100973.97
2022-08-01T04:31:01.750Z,100973.50
2022-08-01T04:34:07.380Z,100988.16
2022-08-01T04:37:13.166Z,100986.66
2022-08-01T04:40:18.060Z,100983.44
2022-08-01T04:43:20.962Z,100995.56
2022-08-01T04:46:24.669Z,100996.50
2022-08-01T04:49:27.536Z,101001.41
2022-08-01T04:52:36.755Z,101005.78
2022-08-01T04:55:39.490Z,101010.00
2022-08-01T04:58:42.807Z,101012.63
2022-08-01T05:01:50.653Z,101017.94
2022-08-01T05:04:53.361Z,101014.75
2022-08-01T05:07:57.407Z,101016.47
2022-08-01T05:11:00.320Z,101017.44
2022-08-01T05:14:03.034Z,101014.41
2022-08-01T05:17:07.952Z,101009.56
2022-08-01T05:20:12.450Z,101014.50
2022-08-01T05:23:30.957Z,101017.03
2022-08-01T05:26:39.263Z,101022.47
2022-08-01T05:29:44.751Z,101027.50
2022-08-01T05:32:47.639Z,101028.53
2022-08-01T05:35:50.389Z,101029.56
2022-08-01T05:38:54.490Z,101030.28
2022-08-01T05:41:57.189Z,101035.47
2022-08-01T05:44:59.881Z,101037.97
2022-08-01T05:48:02.565Z,101042.63
2022-08-01T05:51:05.455Z,101052.41
2022-08-01T05:54:09.781Z,101043.81
2022-08-01T05:57:12.564Z,101057.91
2022-08-01T06:00:17.089Z,101053.44
2022-08-01T06:03:20.184Z,101058.88
2022-08-01T06:06:25.267Z,101056.44
2022-08-01T06:09:29.987Z,101056.72
2022-08-01T06:12:35.707Z,101060.28
2022-08-01T06:15:38.673Z,101058.50
2022-08-01T06:18:41.472Z,101059.75
2022-08-01T06:21:44.207Z,101061.97
2022-08-01T06:24:48.286Z,101066.84
2022-08-01T06:27:51.100Z,101068.47
2022-08-01T06:30:54.364Z,101061.88
2022-08-01T06:33:58.171Z,101071.03
2022-08-01T06:37:00.845Z,101071.09
2022-08-01T06:40:16.952Z,101076.78
2022-08-01T06:43:20.713Z,101084.09
2022-08-01T06:46:23.426Z,101091.19
2022-08-01T06:49:33.376Z,101087.19
2022-08-01T06:52:36.650Z,101097.72
2022-08-01T06:55:40.799Z,101090.28
2022-08-01T06:58:43.572Z,101093.53
2022-08-01T07:01:46.211Z,101096.91
2022-08-01T07:04:49.181Z,101095.25
2022-08-01T07:07:51.994Z,101102.66
2022-08-01T07:10:56.686Z,101099.63
2022-08-01T07:14:00.118Z,101108.59
2022-08-01T07:17:02.873Z,101111.25
2022-08-01T07:20:06.678Z,101106.69
2022-08-01T07:23:13.094Z,101106.13
2022-08-01T07:26:18.460Z,101113.50
2022-08-01T07:29:26.899Z,101124.31
2022-08-01T07:32:30.871Z,101126.56
2022-08-01T07:35:33.694Z,101132.34
2022-08-01T07:38:36.377Z,101129.66
2022-08-01T07:41:53.857Z,101129.66
2022-08-01T07:45:03.069Z,101144.16
2022-08-01T07:48:08.910Z,101140.94
2022-08-01T07:51:13.044Z,101139.19
2022-08-01T07:54:15.892Z,101148.47
2022-08-01T07:57:19.907Z,101152.03
2022-08-01T08:00:22.811Z,101162.50
2022-08-01T08:03:25.478Z,101176.69
2022-08-01T08:06:28.180Z,101166.69
2022-08-01T08:09:30.795Z,101182.00
2022-08-01T08:12:41.466Z,101181.44
2022-08-01T08:15:48.470Z,101176.78
2022-08-01T08:18:51.402Z,101184.44
2022-08-01T08:21:54.099Z,101188.41
2022-08-01T08:24:56.820Z,101182.25
2022-08-01T08:28:05.071Z,101181.84
2022-08-01T08:31:07.777Z,101193.66
2022-08-01T08:34:29.670Z,101185.09
2022-08-01T08:37:37.904Z,101187.69
2022-08-01T08:40:46.734Z,101198.41
2022-08-01T08:43:50.831Z,101199.56
2022-08-01T08:46:54.114Z,101205.50
2022-08-01T08:49:58.863Z,101196.75
2022-08-01T08:53:03.361Z,101206.25
2022-08-01T08:56:10.699Z,101209.06
2022-08-01T08:59:15.903Z,101211.22
2022-08-01T09:02:18.600Z,101219.97
2022-08-01T09:05:26.531Z,101222.41
2022-08-01T09:08:42.131Z,101225.81
2022-08-01T09:11:45.006Z,101229.72
2022-08-01T09:15:01.289Z,101232.00
2022-08-01T09:18:03.967Z,101241.97
2022-08-01T09:21:15.875Z,101244.69
2022-08-01T09:24:30.584Z,101253.69
2022-08-01T09:27:34.651Z,101256.72
2022-08-01T09:30:42.170Z,101260.97
2022-08-01T09:33:51.698Z,101274.28
2022-08-01T09:36:56.844Z,101276.94
2022-08-01T09:39:59.734Z,101276.63
2022-08-01T09:43:12.807Z,101289.00
2022-08-01T09:46:20.623Z,101282.13
2022-08-01T09:49:50.134Z,101283.69
2022-08-01T09:52:57.106Z,101287.84
2022-08-01T09:56:11.731Z,101285.97
2022-08-01T09:59:16.774Z,101280.44
2022-08-01T10:02:32.327Z,101277.31
2022-08-01T10:05:37.243Z,101287.03
2022-08-01T10:08:48.571Z,101292.16
2022-08-01T10:11:52.623Z,101292.59
2022-08-01T10:14:56.441Z,101286.22
2022-08-01T10:18:03.139Z,101277.78
2022-08-01T10:21:08.706Z,101284.72
2022-08-01T10:24:14.968Z,101279.25
2022-08-01T10:27:35.833Z,101294.84
2022-08-01T10:30:43.690Z,101290.69
2022-08-01T10:33:50.690Z,101296.69
2022-08-01T10:36:55.907Z,101296.13
2022-08-01T10:40:20.331Z,101298.41
2022-08-01T10:43:22.344Z,101303.56
2022-08-01T10:46:25.738Z,101298.13
2022-08-01T10:49:32.629Z,101290.63
2022-08-01T10:52:39.553Z,101293.47
2022-08-01T10:55:50.822Z,101292.09
2022-08-01T10:59:06.406Z,101295.41
2022-08-01T11:02:32.351Z,101300.13
2022-08-01T11:05:37.804Z,101293.13
2022-08-01T11:08:40.757Z,101294.81
2022-08-01T11:12:01.123Z,101299.94
2022-08-01T11:15:29.796Z,101287.78
2022-08-01T11:18:37.745Z,101290.53
2022-08-01T11:22:04.705Z,101288.63
2022-08-01T11:25:07.901Z,101286.09
2022-08-01T11:28:29.081Z,101296.94
2022-08-01T11:31:37.689Z,101305.09
2022-08-01T11:34:56.398Z,101305.03
2022-08-01T11:38:29.203Z,101299.66
2022-08-01T11:41:38.547Z,101303.78
2022-08-01T11:44:51.171Z,101287.38
2022-08-01T11:47:53.903Z,101297.13
2022-08-01T11:50:58.352Z,101299.66
2022-08-01T11:54:06.837Z,101313.03
2022-08-01T11:57:13.402Z,101309.25
2022-08-01T12:00:18.809Z,101308.91
2022-08-01T12:03:33.473Z,101313.22
2022-08-01T12:06:36.826Z,101310.63
2022-08-01T12:09:40.882Z,101315.97
2022-08-01T12:12:46.202Z,101315.78
2022-08-01T12:15:56.250Z,101325.63
2022-08-01T12:18:59.499Z,101317.63
2022-08-01T12:22:10.355Z,101324.53
2022-08-01T12:25:16.245Z,101322.22
2022-08-01T12:28:19.596Z,101320.00
2022-08-01T12:31:33.158Z,101320.53
2022-08-01T12:34:36.342Z,101321.31
2022-08-01T12:37:39.836Z,101318.44
2022-08-01T12:40:45.943Z,101327.41
2022-08-01T12:43:50.017Z,101323.31
2022-08-01T12:46:53.111Z,101317.47
2022-08-01T12:49:55.874Z,101315.56
2022-08-01T12:52:59.776Z,101323.25
2022-08-01T12:56:03.820Z,101322.91
2022-08-01T12:59:21.962Z,101328.22
2022-08-01T13:02:33.817Z,101324.09
2022-08-01T13:05:44.922Z,101312.50
2022-08-01T13:08:47.616Z,101315.34
2022-08-01T13:12:06.140Z,101316.91
2022-08-01T13:15:22.076Z,101324.41
2022-08-01T13:18:26.797Z,101318.09
2022-08-01T13:21:52.843Z,101328.28
2022-08-01T13:24:53.440Z,101317.50
2022-08-01T13:28:18.260Z,101314.75
2022-08-01T13:31:20.943Z,101320.53
2022-08-01T13:34:32.310Z,101328.38
2022-08-01T13:37:35.032Z,101332.78
2022-08-01T13:40:39.963Z,101325.34
2022-08-01T13:43:58.673Z,101324.47
2022-08-01T13:47:02.089Z,101325.06
2022-08-01T13:50:14.317Z,101329.91
2022-08-01T13:53:18.495Z,101335.94
2022-08-01T13:56:21.218Z,101329.41
2022-08-01T13:59:25.320Z,101328.25
2022-08-01T14:02:28.712Z,101340.47
2022-08-01T14:05:32.314Z,101333.81
2022-08-01T14:08:35.324Z,101337.22
2022-08-01T14:11:38.509Z,101346.66
2022-08-01T14:14:42.605Z,101354.69
2022-08-01T14:17:47.615Z,101344.66
2022-08-01T14:20:50.746Z,101355.25
2022-08-01T14:23:57.531Z,101356.13
2022-08-01T14:27:00.321Z,101353.69
2022-08-01T14:30:05.009Z,101353.47
2022-08-01T14:33:07.810Z,101365.41
2022-08-01T14:36:30.343Z,101359.84
2022-08-01T14:39:33.270Z,101357.44
2022-08-01T14:42:35.947Z,101362.41
2022-08-01T14:45:40.004Z,101362.88
2022-08-01T14:48:42.742Z,101362.88
2022-08-01T14:51:45.445Z,101364.41
2022-08-01T14:54:48.381Z,101358.53
2022-08-01T14:57:51.417Z,101367.91
2022-08-01T15:00:58.912Z,101355.81
2022-08-01T15:04:02.206Z,101357.00
2022-08-01T15:07:07.260Z,101368.06
2022-08-01T15:10:10.462Z,101361.19
2022-08-01T15:13:13.089Z,101362.63
2022-08-01T15:16:17.474Z,101367.69
2022-08-01T15:19:20.109Z,101369.38
2022-08-01T15:22:24.273Z,101358.72
2022-08-01T15:25:26.953Z,101360.25
2022-08-01T15:28:44.242Z,101364.25
2022-08-01T15:31:48.356Z,101368.31
2022-08-01T15:34:51.262Z,101375.72
2022-08-01T15:37:53.952Z,101373.91
2022-08-01T15:40:56.638Z,101373.19
2022-08-01T15:43:59.331Z,101379.00
2022-08-01T15:47:04.264Z,101380.38
2022-08-01T15:50:07.914Z,101383.38
2022-08-01T15:53:10.713Z,101387.91
2022-08-01T15:56:13.451Z,101390.16
2022-08-01T15:59:16.071Z,101387.19
2022-08-01T16:02:20.182Z,101387.22
2022-08-01T16:05:22.874Z,101396.47
2022-08-01T16:08:25.484Z,101395.59
2022-08-01T16:11:28.164Z,101396.88
2022-08-01T16:14:30.755Z,101400.28
2022-08-01T16:17:37.297Z,101394.16
2022-08-01T16:20:45.613Z,101394.81
2022-08-01T16:23:48.752Z,101399.31
2022-08-01T16:26:52.117Z,101397.50
2022-08-01T16:29:54.759Z,101408.69
2022-08-01T16:33:00.491Z,101409.03
2022-08-01T16:36:08.526Z,101409.91
2022-08-01T16:39:23.031Z,101409.91
2022-08-01T16:42:27.597Z,101406.22
2022-08-01T16:45:30.727Z,101408.91
2022-08-01T16:48:34.803Z,101416.06
2022-08-01T16:51:47.812Z,101413.41
2022-08-01T16:54:50.943Z,101413.91
2022-08-01T16:57:53.654Z,101418.06
2022-08-01T17:00:57.727Z,101418.66
2022-08-01T17:04:20.738Z,101428.50
2022-08-01T17:07:23.342Z,101427.50
2022-08-01T17:10:26.556Z,101429.22
2022-08-01T17:13:29.169Z,101431.69
2022-08-01T17:16:36.102Z,101436.09
2022-08-01T17:19:40.713Z,101426.88
2022-08-01T17:22:43.354Z,101426.97
2022-08-01T17:25:46.040Z,101430.88
2022-08-01T17:28:48.756Z,101423.28
2022-08-01T17:31:51.389Z,101424.59
2022-08-01T17:34:55.373Z,101430.66
2022-08-01T17:37:57.989Z,101429.09
2022-08-01T17:41:00.658Z,101429.88
2022-08-01T17:44:03.224Z,101417.19
2022-08-01T17:47:06.541Z,101437.78
2022-08-01T17:50:12.793Z,101435.41
2022-08-01T17:53:21.205Z,101434.09
2022-08-01T17:56:24.020Z,101443.19
2022-08-01T17:59:26.578Z,101442.22
2022-08-01T18:02:29.231Z,101437.69
2022-08-01T18:05:36.938Z,101450.34
2022-08-01T18:08:41.786Z,101446.25
2022-08-01T18:11:44.499Z,101441.28
2022-08-01T18:14:47.162Z,101447.47
2022-08-01T18:17:49.787Z,101448.56
2022-08-01T18:20:53.866Z,101465.47
2022-08-01T18:24:01.366Z,101458.38
2022-08-01T18:27:04.050Z,101457.41
2022-08-01T18:30:08.809Z,101467.56
2022-08-01T18:33:11.406Z,101463.97
2022-08-01T18:36:31.579Z,101459.69
2022-08-01T18:39:35.228Z,101466.78
2022-08-01T18:42:38.637Z,101457.94
2022-08-01T18:45:43.136Z,101466.25
2022-08-01T18:48:45.882Z,101465.91
2022-08-01T18:51:49.776Z,101465.94
2022-08-01T18:54:52.708Z,101467.22
2022-08-01T18:57:55.284Z,101475.59
2022-08-01T19:00:57.875Z,101479.13
2022-08-01T19:04:00.526Z,101479.25
2022-08-01T19:07:05.187Z,101478.31
2022-08-01T19:10:08.445Z,101482.41
2022-08-01T19:13:11.711Z,101477.69
2022-08-01T19:16:16.397Z,101478.81
2022-08-01T19:19:27.375Z,101480.84
2022-08-01T19:22:31.693Z,101483.38
2022-08-01T19:25:34.352Z,101490.88
2022-08-01T19:29:02.382Z,101497.88
2022-08-01T19:32:07.081Z,101502.81
2022-08-01T19:35:13.292Z,101506.38
2022-08-01T19:38:18.376Z,101507.41
2022-08-01T19:41:22.923Z,101513.06
2022-08-01T19:44:28.842Z,101510.38
2022-08-01T19:47:52.329Z,101512.56
2022-08-01T19:50:56.403Z,101522.34
2022-08-01T19:54:06.051Z,101526.00
2022-08-01T19:57:10.679Z,101525.13
2022-08-01T20:00:28.072Z,101523.13
2022-08-01T20:03:35.051Z,101534.41
2022-08-01T20:06:37.774Z,101531.00
2022-08-01T20:09:42.966Z,101530.16
2022-08-01T20:12:45.850Z,101529.25
2022-08-01T20:15:49.074Z,101528.88
2022-08-01T20:18:52.106Z,101541.13
2022-08-01T20:22:03.088Z,101527.22
2022-08-01T20:25:10.993Z,101533.44
2022-08-01T20:28:14.306Z,101530.84
2022-08-01T20:31:18.011Z,101528.97
2022-08-01T20:34:22.651Z,101534.53
2022-08-01T20:38:06.314Z,101538.16
2022-08-01T20:40:52.404Z,101542.59
2022-08-01T20:43:58.934Z,101538.28
2022-08-01T20:47:04.905Z,101534.19
2022-08-01T20:50:50.694Z,101533.31
2022-08-01T20:53:52.470Z,101528.75
2022-08-01T20:56:59.959Z,101528.34
2022-08-01T21:00:05.848Z,101534.38
2022-08-01T21:03:14.272Z,101535.81
2022-08-01T21:06:24.333Z,101540.97
2022-08-01T21:09:39.158Z,101553.28
2022-08-01T21:12:49.375Z,101545.91
2022-08-01T21:16:07.331Z,101549.03
2022-08-01T21:19:26.806Z,101550.72
2022-08-01T21:22:36.876Z,101554.59
2022-08-01T21:25:39.570Z,101563.25
2022-08-01T21:28:54.097Z,101571.81
2022-08-01T21:32:12.302Z,101565.31
2022-08-01T21:35:18.710Z,101563.28
2022-08-01T21:38:22.302Z,101569.75
2022-08-01T21:42:03.964Z,101565.09
2022-08-01T21:44:49.974Z,101566.66
2022-08-01T21:47:52.760Z,101567.66
2022-08-01T21:50:57.979Z,101561.66
2022-08-01T21:54:13.908Z,101564.19
2022-08-01T21:57:26.655Z,101562.38
2022-08-01T22:00:31.333Z,101562.25
2022-08-01T22:03:41.455Z,101561.91
2022-08-01T22:06:45.634Z,101560.44
2022-08-01T22:09:50.909Z,101554.78
2022-08-01T22:12:53.929Z,101558.88
2022-08-01T22:15:59.623Z,101565.16
2022-08-01T22:19:03.148Z,101566.66
2022-08-01T22:22:29.135Z,101558.81
2022-08-01T22:25:32.575Z,101558.19
2022-08-01T22:28:36.222Z,101565.34
2022-08-01T22:31:40.930Z,101566.66
2022-08-01T22:34:43.592Z,101557.22
2022-08-01T22:37:56.345Z,101554.88
2022-08-01T22:41:03.938Z,101567.50
2022-08-01T22:44:10.802Z,101561.06
2022-08-01T22:47:21.230Z,101568.16
2022-08-01T22:50:36.010Z,101562.09
2022-08-01T22:53:48.376Z,101553.69
2022-08-01T22:56:55.516Z,101559.41
2022-08-01T23:00:02.141Z,101557.78
2022-08-01T23:03:13.150Z,101557.94
2022-08-01T23:06:23.534Z,101562.81
2022-08-01T23:09:52.782Z,101560.25
2022-08-01T23:12:51.905Z,101563.81
2022-08-01T23:15:56.056Z,101559.56
2022-08-01T23:19:00.878Z,101557.81
2022-08-01T23:22:05.184Z,101548.72
2022-08-01T23:25:10.347Z,101551.66
2022-08-01T23:28:14.428Z,101549.50
2022-08-01T23:31:17.853Z,101546.97
2022-08-01T23:34:21.745Z,101544.81
2022-08-01T23:37:24.453Z,101544.03
2022-08-01T23:40:27.416Z,101547.19
2022-08-01T23:43:30.028Z,101556.06
2022-08-01T23:46:32.613Z,101546.69
2022-08-01T23:49:53.396Z,101549.88
2022-08-01T23:52:56.633Z,101545.59
2022-08-01T23:56:01.138Z,101544.97
2022-08-01T23:59:05.627Z,101553.47
